Time;durP1;ratioP1;P1;durP2;ratioP2;P2;SDS_P1;SDS_P2;PMS_P1;PMS_P2;Temp;Humidity;BMP_temperature;BMP_pressure;BME280_temperature;BME280_humidity;BME280_pressure;Samples;Min_cycle;Max_cycle;Signal;HPM_P1;HPM_P2
2021/12/09 00:02:26;;;;;;;121.65;73.32;;;51.30;2227.20;;;;;;5096589;28;20054;-88
2021/12/09 00:04:55;;;;;;;102.20;63.85;;;51.40;2227.20;;;;;;5096800;28;20349;-89
2021/12/09 00:07:21;;;;;;;86.95;53.45;;;51.50;2227.20;;;;;;5096500;28;20020;-91
2021/12/09 00:09:46;;;;;;;127.38;73.22;;;51.60;2227.20;;;;;;5097036;28;20024;-89
2021/12/09 00:12:12;;;;;;;331.70;201.55;;;51.70;2227.20;;;;;;5097027;28;20448;-89
2021/12/09 00:14:38;;;;;;;358.85;217.80;;;51.50;2227.20;;;;;;5096576;28;20022;-90
2021/12/09 00:17:08;;;;;;;355.98;213.32;;;26.50;2201.60;;;;;;5096791;28;20024;-87
2021/12/09 00:19:35;;;;;;;316.00;192.23;;;26.30;2201.60;;;;;;5095112;28;20028;-88
2021/12/09 00:22:04;;;;;;;287.00;176.43;;;26.40;2201.60;;;;;;5096527;28;20031;-88
2021/12/09 00:24:30;;;;;;;299.58;185.70;;;26.20;2201.60;;;;;;5096425;28;20449;-87
2021/12/09 00:26:56;;;;;;;297.10;179.93;;;26.30;2201.60;;;;;;5096568;28;20468;-87
2021/12/09 00:29:23;;;;;;;304.05;191.55;;;26.40;2201.60;;;;;;5096225;28;20028;-87
2021/12/09 00:31:49;;;;;;;276.02;168.43;;;26.20;2201.60;;;;;;5096310;28;20031;-87
2021/12/09 00:34:20;;;;;;;264.45;163.95;;;26.30;2201.60;;;;;;5096125;28;20380;-88
2021/12/09 00:37:14;;;;;;;250.65;154.02;;;26.10;2201.60;;;;;;5096751;28;20078;-88
2021/12/09 00:39:42;;;;;;;233.40;142.35;;;25.90;2201.60;;;;;;5096011;28;20032;-88
2021/12/09 00:42:09;;;;;;;261.83;157.10;;;25.90;2201.60;;;;;;5095931;28;20019;-89
2021/12/09 00:44:35;;;;;;;253.27;153.73;;;26.00;2201.60;;;;;;5095930;28;20061;-88
2021/12/09 00:47:01;;;;;;;215.55;131.73;;;26.10;2201.60;;;;;;5095781;28;20034;-89
2021/12/09 00:49:30;;;;;;;148.13;92.07;;;26.20;2201.60;;;;;;5095762;28;20013;-89
2021/12/09 00:51:57;;;;;;;111.65;68.00;;;26.30;2201.60;;;;;;5095828;28;20020;-88
2021/12/09 00:54:23;;;;;;;88.47;54.78;;;51.20;2227.20;;;;;;5095879;28;20071;-88
2021/12/09 00:56:49;;;;;;;101.43;56.50;;;51.20;2227.20;;;;;;5095915;28;20020;-87
2021/12/09 00:59:16;;;;;;;73.90;43.63;;;51.40;2227.20;;;;;;5095946;28;20114;-88
2021/12/09 01:01:42;;;;;;;66.68;40.60;;;51.50;2227.20;;;;;;5095696;28;20055;-88
2021/12/09 01:04:08;;;;;;;71.40;42.55;;;51.60;2227.20;;;;;;5095509;28;20020;-89
2021/12/09 01:06:34;;;;;;;86.28;50.15;;;51.70;2227.20;;;;;;5095570;28;20077;-89
2021/12/09 01:09:00;;;;;;;62.00;38.88;;;51.70;2227.20;;;;;;5095445;28;20028;-88
2021/12/09 01:11:26;;;;;;;52.50;33.15;;;51.70;2227.20;;;;;;5095528;28;20054;-89
2021/12/09 01:13:51;;;;;;;46.13;29.40;;;51.70;2227.20;;;;;;5095796;28;20024;-89
2021/12/09 01:16:17;;;;;;;57.17;34.03;;;51.80;2227.20;;;;;;5095798;28;20107;-89
2021/12/09 01:18:43;;;;;;;43.67;28.33;;;51.80;2227.20;;;;;;5095402;28;20170;-89
2021/12/09 01:21:10;;;;;;;47.08;26.90;;;51.90;2227.20;;;;;;5095568;28;20509;-89
2021/12/09 01:23:36;;;;;;;46.92;26.95;;;51.90;2227.20;;;;;;5095459;28;20118;-89
2021/12/09 01:26:04;;;;;;;44.00;27.38;;;51.90;2227.20;;;;;;5113128;28;20028;-89
2021/12/09 01:28:39;;;;;;;41.42;26.98;;;51.90;2227.20;;;;;;5106028;28;20075;-89
2021/12/09 01:31:06;;;;;;;42.00;25.45;;;52.00;2227.20;;;;;;5095083;28;20030;-89
2021/12/09 01:33:34;;;;;;;43.60;28.27;;;52.10;2227.20;;;;;;5095461;28;20046;-89
2021/12/09 01:36:01;;;;;;;43.20;27.98;;;52.00;2227.20;;;;;;5094968;28;20016;-89
2021/12/09 01:38:30;;;;;;;45.22;27.77;;;52.10;2227.20;;;;;;5094598;28;20429;-89
2021/12/09 01:40:56;;;;;;;40.70;26.48;;;52.10;2227.20;;;;;;5094844;28;20028;-89
2021/12/09 01:43:23;;;;;;;34.22;20.67;;;52.10;2227.20;;;;;;5094805;28;20016;-89
2021/12/09 01:46:03;;;;;;;34.63;21.20;;;77.00;2227.20;;;;;;5095057;28;20464;-89
2021/12/09 01:48:29;;;;;;;36.50;22.23;;;52.10;2227.20;;;;;;5094841;28;20031;-88
2021/12/09 01:50:55;;;;;;;37.88;22.92;;;76.80;2227.20;;;;;;5094534;28;20067;-89
2021/12/09 01:53:21;;;;;;;37.40;23.30;;;76.80;2227.20;;;;;;5094721;28;20069;-89
2021/12/09 01:55:47;;;;;;;35.10;23.77;;;76.80;2227.20;;;;;;5094652;28;20020;-88
2021/12/09 01:58:12;;;;;;;42.38;27.80;;;76.90;2227.20;;;;;;5094540;28;20027;-89
2021/12/09 02:00:38;;;;;;;76.00;43.67;;;77.00;2227.20;;;;;;5094528;28;20063;-88
2021/12/09 02:03:05;;;;;;;57.13;33.85;;;76.90;2227.20;;;;;;5094539;28;20038;-89
2021/12/09 02:05:33;;;;;;;70.13;35.08;;;76.90;2227.20;;;;;;5094207;28;20020;-89
2021/12/09 02:07:59;;;;;;;50.75;27.70;;;76.90;2227.20;;;;;;5094480;28;20077;-89
2021/12/09 02:10:26;;;;;;;41.15;26.63;;;76.90;2227.20;;;;;;5094356;28;20045;-89
2021/12/09 02:12:53;;;;;;;38.45;25.10;;;76.80;2227.20;;;;;;5094536;28;20048;-89
2021/12/09 02:15:22;;;;;;;40.38;23.55;;;76.90;2227.20;;;;;;5094584;28;20020;-89
2021/12/09 02:17:49;;;;;;;34.50;23.33;;;76.90;2227.20;;;;;;5094274;28;20023;-89
2021/12/09 02:20:16;;;;;;;28.40;19.92;;;76.90;2227.20;;;;;;5094107;28;20032;-88
2021/12/09 02:22:46;;;;;;;30.35;20.63;;;77.10;2227.20;;;;;;5094250;28;20024;-88
2021/12/09 02:25:14;;;;;;;32.47;20.20;;;77.00;2227.20;;;;;;5094328;28;20371;-89
2021/12/09 02:27:40;;;;;;;29.50;19.75;;;77.00;2227.20;;;;;;5093995;28;20046;-88
2021/12/09 02:30:07;;;;;;;27.50;18.20;;;77.00;2227.20;;;;;;5094012;28;20066;-88
2021/12/09 02:32:32;;;;;;;29.80;18.90;;;77.10;2227.20;;;;;;5094157;28;20024;-89
2021/12/09 02:34:58;;;;;;;32.70;20.50;;;77.10;2227.20;;;;;;5093952;28;20024;-88
2021/12/09 02:37:24;;;;;;;29.45;18.67;;;77.10;2227.20;;;;;;5093676;28;20068;-88
2021/12/09 02:39:50;;;;;;;30.67;19.52;;;77.10;2227.20;;;;;;5093710;28;20085;-89
2021/12/09 02:42:16;;;;;;;27.88;17.40;;;77.20;2227.20;;;;;;5093358;28;20024;-89
2021/12/09 02:44:43;;;;;;;26.95;18.08;;;77.20;2227.20;;;;;;5095083;28;20360;-89
2021/12/09 02:47:09;;;;;;;29.23;18.67;;;77.10;2227.20;;;;;;5093768;28;20512;-88
2021/12/09 02:49:35;;;;;;;28.70;19.17;;;77.20;2227.20;;;;;;5093623;28;20066;-88
2021/12/09 02:52:03;;;;;;;28.98;18.48;;;77.30;2227.20;;;;;;5094176;28;20051;-88
2021/12/09 02:54:30;;;;;;;28.35;19.48;;;77.30;2227.20;;;;;;5096126;28;20111;-88
2021/12/09 02:57:03;;;;;;;30.83;19.20;;;77.30;2227.20;;;;;;5096452;28;20020;-88
2021/12/09 02:59:31;;;;;;;31.00;18.88;;;77.40;2227.20;;;;;;5096711;28;20410;-88
2021/12/09 03:01:59;;;;;;;32.85;19.10;;;77.40;2227.20;;;;;;5096741;28;20035;-88
2021/12/09 03:04:48;;;;;;;32.90;19.90;;;77.40;2227.20;;;;;;5095552;28;20083;-88
2021/12/09 03:07:19;;;;;;;36.00;19.80;;;77.50;2227.20;;;;;;5095569;28;20016;-88
2021/12/09 03:09:51;;;;;;;30.23;17.67;;;77.40;2227.20;;;;;;5095559;28;20467;-86
2021/12/09 03:12:24;;;;;;;29.70;18.20;;;77.50;2227.20;;;;;;5093999;28;20024;-88
2021/12/09 03:14:50;;;;;;;26.92;16.42;;;77.60;2227.20;;;;;;5093627;28;20035;-88
2021/12/09 03:17:17;;;;;;;26.77;16.25;;;77.50;2227.20;;;;;;5093587;28;20036;-88
2021/12/09 03:19:43;;;;;;;30.17;20.48;;;77.50;2227.20;;;;;;5094358;28;20036;-88
2021/12/09 03:22:10;;;;;;;34.45;19.13;;;77.50;2227.20;;;;;;5093604;28;20026;-88
2021/12/09 03:24:36;;;;;;;27.65;18.10;;;77.40;2227.20;;;;;;5093611;28;20105;-87
2021/12/09 03:27:03;;;;;;;32.25;19.50;;;77.40;2227.20;;;;;;5093232;28;20044;-88
2021/12/09 03:29:29;;;;;;;22.77;15.68;;;77.50;2227.20;;;;;;5093322;28;20028;-88
2021/12/09 03:32:00;;;;;;;31.50;17.92;;;77.40;2227.20;;;;;;5093260;28;20478;-88
2021/12/09 03:34:28;;;;;;;32.53;20.33;;;77.40;2227.20;;;;;;5093470;28;20083;-88
2021/12/09 03:36:57;;;;;;;39.33;21.77;;;77.40;2227.20;;;;;;5092966;28;20021;-88
2021/12/09 03:39:26;;;;;;;35.75;20.98;;;77.50;2227.20;;;;;;5093519;28;20475;-87
2021/12/09 03:41:54;;;;;;;40.47;24.10;;;77.50;2227.20;;;;;;5095050;28;20020;-88
2021/12/09 03:44:21;;;;;;;35.60;21.63;;;77.40;2227.20;;;;;;5096640;28;20124;-88
2021/12/09 03:46:49;;;;;;;36.05;19.60;;;77.50;2227.20;;;;;;5096303;28;20084;-89
2021/12/09 03:49:15;;;;;;;36.90;22.00;;;77.60;2227.20;;;;;;5095810;28;20362;-88
2021/12/09 03:51:41;;;;;;;37.50;22.20;;;77.60;2227.20;;;;;;5092890;28;20119;-89
2021/12/09 03:54:09;;;;;;;42.65;23.77;;;77.60;2227.20;;;;;;5095620;28;20020;-88
2021/12/09 03:56:36;;;;;;;37.67;21.95;;;77.60;2227.20;;;;;;5097956;28;20020;-88
2021/12/09 03:59:04;;;;;;;47.30;24.75;;;77.10;2227.20;;;;;;5096755;28;20050;-88
2021/12/09 04:01:30;;;;;;;37.88;21.55;;;77.60;2227.20;;;;;;5096583;28;20011;-89
2021/12/09 04:03:56;;;;;;;39.08;22.83;;;77.60;2227.20;;;;;;5096776;28;20012;-88
2021/12/09 04:06:22;;;;;;;44.25;25.73;;;77.60;2227.20;;;;;;5096659;28;20067;-89
2021/12/09 04:08:49;;;;;;;48.10;27.25;;;77.60;2227.20;;;;;;5096999;28;20024;-87
2021/12/09 04:11:17;;;;;;;40.67;24.67;;;77.70;2227.20;;;;;;5096764;28;20115;-88
2021/12/09 04:13:43;;;;;;;42.55;25.70;;;77.70;2227.20;;;;;;5096454;28;20020;-88
2021/12/09 04:16:10;;;;;;;29.75;19.75;;;77.60;2227.20;;;;;;5096330;28;20024;-88
2021/12/09 04:18:38;;;;;;;26.98;18.25;;;77.60;2227.20;;;;;;5097405;28;20020;-89
2021/12/09 04:21:04;;;;;;;34.38;20.15;;;77.70;2227.20;;;;;;5096514;28;20032;-89
2021/12/09 04:23:31;;;;;;;32.38;20.60;;;77.70;2227.20;;;;;;5096599;28;20020;-88
2021/12/09 04:25:58;;;;;;;36.80;21.40;;;102.40;2227.20;;;;;;5096321;28;20046;-88
2021/12/09 04:28:24;;;;;;;35.78;20.67;;;77.70;2227.20;;;;;;5096435;28;20028;-88
2021/12/09 04:30:50;;;;;;;34.38;20.55;;;77.70;2227.20;;;;;;5096271;28;20050;-88
2021/12/09 04:33:16;;;;;;;27.40;19.40;;;77.70;2227.20;;;;;;5096115;28;20020;-87
2021/12/09 04:35:42;;;;;;;29.73;20.08;;;77.70;2227.20;;;;;;5097236;28;20016;-88
2021/12/09 04:38:08;;;;;;;29.20;19.45;;;77.40;2227.20;;;;;;5095854;28;20055;-88
2021/12/09 04:40:34;;;;;;;33.58;19.50;;;77.70;2227.20;;;;;;5096118;28;20024;-88
2021/12/09 04:43:03;;;;;;;29.67;18.90;;;77.70;2227.20;;;;;;5095809;28;20020;-88
2021/12/09 04:45:30;;;;;;;28.63;17.70;;;77.70;2227.20;;;;;;5095826;28;20059;-88
2021/12/09 04:47:57;;;;;;;25.17;15.02;;;77.70;2227.20;;;;;;5101983;28;20012;-88
2021/12/09 04:50:24;;;;;;;21.27;14.65;;;77.70;2227.20;;;;;;5120620;28;20028;-86
2021/12/09 04:52:50;;;;;;;20.52;14.00;;;77.70;2227.20;;;;;;5098339;28;20027;-88
2021/12/09 04:55:16;;;;;;;24.02;15.70;;;77.70;2227.20;;;;;;5095914;28;20024;-88
2021/12/09 04:57:43;;;;;;;20.70;14.50;;;102.40;2227.20;;;;;;5095806;28;20401;-87
2021/12/09 05:00:12;;;;;;;25.25;15.65;;;102.50;2227.20;;;;;;5095481;28;20475;-88
2021/12/09 05:05:07;;;;;;;26.35;15.88;;;102.40;2227.20;;;;;;5096131;28;20114;-87
2021/12/09 05:07:33;;;;;;;29.05;16.35;;;77.70;2227.20;;;;;;5095252;28;20020;-89
2021/12/09 05:09:59;;;;;;;42.75;23.40;;;102.40;2227.20;;;;;;5095518;28;20379;-88
2021/12/09 05:12:27;;;;;;;36.58;22.80;;;102.50;2227.20;;;;;;5095366;28;20107;-87
2021/12/09 05:14:52;;;;;;;34.30;21.35;;;102.50;2227.20;;;;;;5095324;28;20047;-86
2021/12/09 05:17:18;;;;;;;29.08;18.50;;;102.50;2227.20;;;;;;5095184;28;20440;-87
2021/12/09 05:19:45;;;;;;;31.88;19.23;;;102.50;2227.20;;;;;;5095374;28;20066;-87
2021/12/09 05:22:11;;;;;;;28.95;18.88;;;102.50;2227.20;;;;;;5095175;28;20028;-87
2021/12/09 05:24:37;;;;;;;29.15;17.85;;;102.50;2227.20;;;;;;5095355;28;20145;-88
2021/12/09 05:27:05;;;;;;;30.20;18.83;;;102.50;2227.20;;;;;;5095299;28;20023;-87
2021/12/09 05:29:38;;;;;;;25.50;15.48;;;102.50;2227.20;;;;;;5094990;28;20059;-88
2021/12/09 05:32:10;;;;;;;27.38;16.88;;;102.60;2227.20;;;;;;5095020;28;20062;-87
2021/12/09 05:34:49;;;;;;;27.33;16.52;;;102.70;2227.20;;;;;;5094753;28;20030;-87
2021/12/09 05:37:18;;;;;;;20.52;13.88;;;102.70;2227.20;;;;;;5095801;28;20123;-87
2021/12/09 05:39:45;;;;;;;23.58;15.65;;;102.70;2227.20;;;;;;5094756;28;20035;-87
2021/12/09 05:42:13;;;;;;;25.27;13.77;;;102.80;2227.20;;;;;;5094818;28;20107;-87
2021/12/09 05:44:40;;;;;;;24.08;15.98;;;102.80;2227.20;;;;;;5094809;28;20444;-87
2021/12/09 05:47:07;;;;;;;25.60;16.23;;;102.80;2227.20;;;;;;5094738;28;20046;-87
2021/12/09 05:49:39;;;;;;;22.15;14.20;;;102.80;2227.20;;;;;;5094180;28;20028;-87
2021/12/09 05:52:06;;;;;;;25.20;16.92;;;102.90;2227.20;;;;;;5095999;28;20016;-88
2021/12/09 05:54:33;;;;;;;25.90;17.48;;;103.00;2227.20;;;;;;5094473;28;20052;-87
2021/12/09 05:56:59;;;;;;;43.28;24.45;;;103.00;2227.20;;;;;;5094456;28;20443;-88
2021/12/09 05:59:25;;;;;;;236.00;97.32;;;103.00;2227.20;;;;;;5094350;28;20406;-88
2021/12/09 06:01:51;;;;;;;675.15;318.25;;;103.00;2227.20;;;;;;5094424;28;20027;-87
2021/12/09 06:04:18;;;;;;;348.13;175.57;;;103.00;2227.20;;;;;;5095350;28;20020;-87
2021/12/09 06:06:44;;;;;;;134.32;80.68;;;103.00;2227.20;;;;;;5094165;28;20024;-87
2021/12/09 06:09:11;;;;;;;58.50;37.90;;;102.90;2227.20;;;;;;5094130;28;20509;-88
2021/12/09 06:11:40;;;;;;;35.05;22.98;;;103.00;2227.20;;;;;;5094011;28;20023;-87
2021/12/09 06:14:07;;;;;;;28.92;17.90;;;103.00;2227.20;;;;;;5094274;28;20023;-87
2021/12/09 06:16:35;;;;;;;29.98;19.63;;;103.00;2227.20;;;;;;5093171;28;20027;-87
2021/12/09 06:19:01;;;;;;;33.33;22.25;;;103.00;2227.20;;;;;;5093859;28;20047;-86
2021/12/09 06:21:28;;;;;;;37.35;22.75;;;103.00;2227.20;;;;;;5094056;28;20023;-87
2021/12/09 06:24:02;;;;;;;34.95;23.92;;;102.90;2227.20;;;;;;5094087;28;20039;-86
2021/12/09 06:26:30;;;;;;;35.05;22.92;;;103.10;2227.20;;;;;;5094145;28;20015;-87
2021/12/09 06:28:56;;;;;;;27.70;20.23;;;103.00;2227.20;;;;;;5093746;28;20020;-87
2021/12/09 06:31:23;;;;;;;27.38;18.33;;;103.10;2227.20;;;;;;5093830;28;20042;-86
2021/12/09 06:33:49;;;;;;;34.28;20.05;;;103.00;2227.20;;;;;;5093870;28;20020;-87
2021/12/09 06:36:16;;;;;;;36.95;25.38;;;102.80;2227.20;;;;;;5093879;28;20017;-86
2021/12/09 06:38:42;;;;;;;43.08;26.65;;;103.10;2227.20;;;;;;5093137;28;20052;-86
2021/12/09 06:41:08;;;;;;;37.83;24.40;;;103.10;2227.20;;;;;;5093771;28;20028;-87
2021/12/09 06:43:40;;;;;;;51.80;38.28;;;103.30;2227.20;;;;;;5093609;28;20020;-87
2021/12/09 06:46:08;;;;;;;38.58;30.95;;;103.10;2227.20;;;;;;5093493;28;20028;-88
2021/12/09 06:48:35;;;;;;;44.38;31.95;;;103.00;2227.20;;;;;;5093808;28;20020;-86
2021/12/09 06:51:01;;;;;;;41.88;26.25;;;103.10;2227.20;;;;;;5094503;28;20069;-88
2021/12/09 06:53:29;;;;;;;35.72;22.20;;;103.00;2227.20;;;;;;5093469;28;20074;-88
2021/12/09 06:55:55;;;;;;;69.22;38.67;;;103.10;2227.20;;;;;;5093506;28;20056;-87
2021/12/09 06:58:21;;;;;;;52.17;30.75;;;103.10;2227.20;;;;;;5093408;28;20020;-88
2021/12/09 07:00:48;;;;;;;40.22;26.13;;;103.10;2227.20;;;;;;5093505;28;20028;-87
2021/12/09 07:03:16;;;;;;;44.10;25.92;;;103.20;2227.20;;;;;;5093602;28;20027;-86
2021/12/09 07:05:44;;;;;;;47.83;27.70;;;103.20;2227.20;;;;;;5093519;28;20405;-87
2021/12/09 07:08:11;;;;;;;109.05;57.70;;;103.20;2227.20;;;;;;5093458;28;20020;-87
2021/12/09 07:10:38;;;;;;;138.80;74.95;;;103.20;2227.20;;;;;;5093275;28;20024;-87
2021/12/09 07:13:05;;;;;;;95.30;51.83;;;103.20;2227.20;;;;;;5093343;28;20054;-87
2021/12/09 07:15:31;;;;;;;71.43;42.95;;;103.20;2227.20;;;;;;5093329;28;20031;-87
2021/12/09 07:17:58;;;;;;;102.95;59.05;;;103.20;2227.20;;;;;;5093491;28;20027;-87
2021/12/09 07:20:25;;;;;;;97.55;57.50;;;103.20;2227.20;;;;;;5093570;28;20057;-87
2021/12/09 07:22:51;;;;;;;87.18;52.78;;;103.20;2227.20;;;;;;5093693;28;20024;-87
2021/12/09 07:25:19;;;;;;;79.22;47.17;;;103.20;2227.20;;;;;;5093357;28;20112;-88
2021/12/09 07:27:45;;;;;;;88.38;48.50;;;103.20;2227.20;;;;;;5094755;28;20027;-86
2021/12/09 07:30:14;;;;;;;79.55;46.70;;;103.20;2227.20;;;;;;5097379;28;20024;-86
2021/12/09 07:32:40;;;;;;;86.85;54.55;;;103.30;2227.20;;;;;;5097446;28;20031;-86
2021/12/09 07:35:07;;;;;;;91.93;53.55;;;103.30;2227.20;;;;;;5097041;28;20070;-88
2021/12/09 07:37:36;;;;;;;126.38;69.88;;;128.10;2252.80;;;;;;5096674;28;20054;-87
2021/12/09 07:40:02;;;;;;;72.72;39.17;;;128.40;2252.80;;;;;;5096812;28;20058;-86
2021/12/09 07:42:28;;;;;;;82.10;45.13;;;128.10;2252.80;;;;;;5096747;28;20115;-87
2021/12/09 07:44:54;;;;;;;79.35;45.10;;;128.20;2252.80;;;;;;5097838;28;20044;-86
2021/12/09 07:47:20;;;;;;;60.15;41.33;;;128.20;2252.80;;;;;;5097206;28;20016;-87
2021/12/09 07:49:45;;;;;;;146.50;64.18;;;128.20;2252.80;;;;;;5096863;28;20020;-87
2021/12/09 07:52:11;;;;;;;161.30;97.65;;;128.20;2252.80;;;;;;5096715;28;20024;-87
2021/12/09 07:54:37;;;;;;;130.07;86.90;;;128.20;2252.80;;;;;;5096926;28;20039;-87
2021/12/09 07:57:03;;;;;;;133.30;94.75;;;128.30;2252.80;;;;;;5096824;28;20513;-86
2021/12/09 07:59:29;;;;;;;152.82;98.95;;;128.40;2252.80;;;;;;5097850;28;20516;-87
2021/12/09 08:01:55;;;;;;;122.25;82.05;;;128.30;2252.80;;;;;;5096776;28;20455;-88
2021/12/09 08:04:20;;;;;;;125.82;85.80;;;128.30;2252.80;;;;;;5096756;28;20073;-87
2021/12/09 08:06:46;;;;;;;207.43;137.88;;;128.20;2252.80;;;;;;5096520;28;20024;-87
2021/12/09 08:09:13;;;;;;;126.78;84.32;;;128.20;2252.80;;;;;;5096737;28;20024;-84
2021/12/09 08:11:40;;;;;;;107.15;71.70;;;128.40;2252.80;;;;;;5096656;28;20024;-87
2021/12/09 08:14:09;;;;;;;97.15;60.20;;;128.20;2252.80;;;;;;5096557;28;20023;-87
2021/12/09 08:16:37;;;;;;;129.15;82.00;;;128.30;2252.80;;;;;;5096613;28;20020;-88
2021/12/09 08:19:09;;;;;;;113.75;70.85;;;128.50;2252.80;;;;;;5096127;28;20020;-88
2021/12/09 08:21:37;;;;;;;101.43;64.93;;;128.60;2252.80;;;;;;5096499;28;20024;-88
2021/12/09 08:24:05;;;;;;;79.68;51.90;;;128.90;2252.80;;;;;;5096744;28;20027;-88
2021/12/09 08:26:31;;;;;;;164.02;74.68;;;153.60;2252.80;;;;;;5100557;28;20016;-83
2021/12/09 08:28:57;;;;;;;95.13;52.95;;;153.80;2252.80;;;;;;5120879;28;20037;-84
2021/12/09 08:31:24;;;;;;;61.95;39.97;;;154.10;2252.80;;;;;;5102558;28;20028;-86
2021/12/09 08:33:50;;;;;;;56.88;36.38;;;154.00;2252.80;;;;;;5098074;28;20501;-87
2021/12/09 08:36:15;;;;;;;50.30;31.92;;;154.00;2252.80;;;;;;5096697;28;20020;-88
2021/12/09 08:38:41;;;;;;;44.40;32.13;;;154.10;2252.80;;;;;;5095721;28;20055;-87
2021/12/09 08:41:07;;;;;;;53.65;33.45;;;154.30;2252.80;;;;;;5094897;28;20032;-88
2021/12/09 08:43:33;;;;;;;71.00;41.65;;;154.40;2252.80;;;;;;5096035;28;20020;-87
2021/12/09 08:45:59;;;;;;;59.65;36.33;;;179.20;2252.80;;;;;;5095807;28;20020;-84
2021/12/09 08:48:26;;;;;;;48.63;32.92;;;179.30;2252.80;;;;;;5095678;28;20041;-86
2021/12/09 08:50:53;;;;;;;42.03;28.08;;;179.30;2252.80;;;;;;5095903;28;20464;-87
2021/12/09 08:53:23;;;;;;;38.30;24.45;;;179.50;2252.80;;;;;;5095443;28;20020;-86
2021/12/09 08:55:49;;;;;;;27.52;19.23;;;179.40;2252.80;;;;;;5095383;28;20016;-87
2021/12/09 08:58:16;;;;;;;32.63;24.10;;;179.30;2252.80;;;;;;5095602;28;20020;-87
2021/12/09 09:00:44;;;;;;;40.72;25.52;;;179.20;2252.80;;;;;;5095493;28;20475;-86
2021/12/09 09:03:09;;;;;;;45.05;27.08;;;179.20;2252.80;;;;;;5095253;28;20050;-85
2021/12/09 09:05:37;;;;;;;41.03;26.55;;;154.50;2252.80;;;;;;5095487;28;20024;-86
2021/12/09 09:08:04;;;;;;;49.33;32.92;;;154.50;2252.80;;;;;;5095288;28;20101;-87
2021/12/09 09:10:33;;;;;;;49.15;36.42;;;179.20;2252.80;;;;;;5095015;28;20213;-86
2021/12/09 09:12:59;;;;;;;57.38;40.85;;;179.30;2252.80;;;;;;5095137;28;20027;-86
2021/12/09 09:15:27;;;;;;;47.28;33.38;;;179.40;2252.80;;;;;;5094978;28;20027;-85
2021/12/09 09:17:53;;;;;;;42.38;31.33;;;179.40;2252.80;;;;;;5095049;28;20027;-86
2021/12/09 09:20:22;;;;;;;41.88;30.00;;;179.30;2252.80;;;;;;5095154;28;20416;-87
2021/12/09 09:22:49;;;;;;;36.63;26.38;;;179.50;2252.80;;;;;;5096027;28;20020;-87
2021/12/09 09:25:19;;;;;;;32.50;24.40;;;179.60;2252.80;;;;;;5095144;28;20020;-86
2021/12/09 09:27:47;;;;;;;34.40;23.38;;;179.60;2252.80;;;;;;5095164;28;20027;-86
2021/12/09 09:30:17;;;;;;;42.83;27.25;;;179.70;2252.80;;;;;;5094615;28;20114;-85
2021/12/09 09:32:44;;;;;;;42.97;30.17;;;179.80;2252.80;;;;;;5095498;28;20470;-85
2021/12/09 09:35:11;;;;;;;49.90;35.13;;;179.90;2252.80;;;;;;5095089;28;20024;-81
2021/12/09 09:37:38;;;;;;;38.47;26.20;;;180.00;2252.80;;;;;;5093904;28;20051;-79
2021/12/09 09:40:09;;;;;;;34.45;25.55;;;180.10;2252.80;;;;;;5095314;28;20448;-84
2021/12/09 09:45:06;;;;;;;44.33;29.50;;;204.90;2252.80;;;;;;5095611;28;20020;-84
2021/12/09 09:47:32;;;;;;;31.80;23.15;;;205.00;2252.80;;;;;;5094408;28;20021;-85
2021/12/09 09:49:59;;;;;;;36.58;25.80;;;205.10;2252.80;;;;;;5094296;28;20024;-85
2021/12/09 09:52:26;;;;;;;34.03;22.85;;;205.20;2252.80;;;;;;5093993;28;20016;-85
2021/12/09 09:54:54;;;;;;;53.28;38.35;;;205.50;2252.80;;;;;;5094267;28;20016;-85
2021/12/09 09:57:20;;;;;;;46.35;28.98;;;205.30;2252.80;;;;;;5094143;28;20107;-87
2021/12/09 09:59:46;;;;;;;37.03;25.67;;;205.40;2252.80;;;;;;5094120;28;20028;-85
2021/12/09 10:02:13;;;;;;;44.20;30.10;;;205.50;2252.80;;;;;;5093904;28;20020;-84
2021/12/09 10:07:13;;;;;;;;;;;205.70;2252.80;;;;;;5095471;28;20363;-81
2021/12/09 10:09:40;;;;;;;44.55;33.47;;;230.40;2252.80;;;;;;5093880;28;19969;-85
2021/12/09 10:12:07;;;;;;;50.35;37.00;;;230.60;2252.80;;;;;;5095164;28;20051;-83
2021/12/09 10:14:34;;;;;;;52.40;36.95;;;230.80;2252.80;;;;;;5093586;28;20070;-84
2021/12/09 10:17:09;;;;;;;55.50;41.85;;;230.90;2252.80;;;;;;5093583;28;20049;-81
2021/12/09 10:19:48;;;;;;;55.72;41.22;;;230.90;2252.80;;;;;;5093362;28;20055;-84
2021/12/09 10:22:20;;;;;;;31.02;21.27;;;231.10;2252.80;;;;;;5093681;28;20024;-84
2021/12/09 10:24:49;;;;;;;46.40;28.42;;;231.10;2252.80;;;;;;5093690;28;20371;-87
2021/12/09 10:27:33;;;;;;;40.30;27.65;;;231.00;2252.80;;;;;;5093284;28;20111;-88
2021/12/09 10:30:19;;;;;;;34.97;24.60;;;231.20;2252.80;;;;;;5093520;28;20031;-85
2021/12/09 10:32:46;;;;;;;36.22;26.08;;;231.20;2252.80;;;;;;5092690;28;20110;-84
2021/12/09 10:35:15;;;;;;;41.88;30.25;;;231.10;2252.80;;;;;;5093286;28;20020;-83
2021/12/09 10:37:43;;;;;;;39.40;28.33;;;231.10;2252.80;;;;;;5093212;28;20044;-84
2021/12/09 10:40:19;;;;;;;41.78;29.67;;;231.20;2252.80;;;;;;5093833;28;20376;-84
2021/12/09 10:42:54;;;;;;;43.90;26.15;;;231.30;2252.80;;;;;;5093183;28;20352;-82
2021/12/09 10:45:29;;;;;;;28.95;20.17;;;231.30;2252.80;;;;;;5094638;28;20048;-84
2021/12/09 10:48:17;;;;;;;39.83;24.80;;;256.00;2252.80;;;;;;5094421;28;20054;-82
2021/12/09 10:51:03;;;;;;;40.20;27.27;;;256.10;2252.80;;;;;;5093127;28;20127;-81
2021/12/09 10:53:45;;;;;;;46.63;32.90;;;256.20;2252.80;;;;;;5092723;28;20358;-80
2021/12/09 10:56:13;;;;;;;37.17;27.13;;;256.30;2252.80;;;;;;5092909;28;20031;-83
2021/12/09 10:58:44;;;;;;;31.15;20.20;;;256.50;2252.80;;;;;;5094153;28;20108;-82
2021/12/09 11:01:16;;;;;;;28.73;20.10;;;256.80;2252.80;;;;;;5092466;28;20054;-81
2021/12/09 11:03:53;;;;;;;35.97;22.52;;;256.90;2252.80;;;;;;5093844;28;20028;-81
2021/12/09 11:06:29;;;;;;;31.00;20.17;;;281.60;2278.40;;;;;;5092791;28;20024;-83
2021/12/09 11:08:58;;;;;;;25.52;18.25;;;281.60;2278.40;;;;;;5092699;28;20589;-82
2021/12/09 11:11:33;;;;;;;26.40;19.15;;;281.80;2278.40;;;;;;5092748;28;20475;-85
2021/12/09 11:14:16;;;;;;;25.25;17.52;;;281.80;2278.40;;;;;;5094232;28;20348;-87
2021/12/09 11:16:50;;;;;;;25.70;18.30;;;282.00;2278.40;;;;;;5093173;28;20020;-85
2021/12/09 11:19:38;;;;;;;37.00;24.95;;;282.00;2278.40;;;;;;5092580;28;20486;-84
2021/12/09 11:22:11;;;;;;;36.42;23.65;;;281.80;2278.40;;;;;;5093164;28;20023;-84
2021/12/09 11:24:49;;;;;;;37.70;21.98;;;281.70;2278.40;;;;;;5094443;28;20448;-85
2021/12/09 11:27:22;;;;;;;38.95;26.15;;;281.60;2278.40;;;;;;5092586;28;20395;-85
2021/12/09 11:29:52;;;;;;;45.53;31.35;;;281.70;2278.40;;;;;;5092320;28;20027;-85
2021/12/09 11:35:15;;;;;;;41.78;28.92;;;256.90;2252.80;;;;;;5093363;28;20028;-84
2021/12/09 11:37:48;;;;;;;44.47;33.00;;;256.80;2252.80;;;;;;5092392;28;20044;-85
2021/12/09 11:40:34;;;;;;;46.47;31.33;;;256.90;2252.80;;;;;;5092618;28;20483;-85
2021/12/09 11:43:02;;;;;;;36.72;24.85;;;281.60;2278.40;;;;;;5094011;28;20012;-84
2021/12/09 11:45:32;;;;;;;45.72;30.92;;;281.70;2278.40;;;;;;5092754;28;20028;-84
2021/12/09 11:47:59;;;;;;;39.47;28.13;;;281.80;2278.40;;;;;;5092586;28;20028;-83
2021/12/09 11:50:28;;;;;;;49.80;31.85;;;282.00;2278.40;;;;;;5093732;28;20020;-80
2021/12/09 11:52:55;;;;;;;46.28;29.63;;;282.00;2278.40;;;;;;5093430;28;20020;-81
2021/12/09 11:55:29;;;;;;;48.03;31.02;;;282.10;2278.40;;;;;;5093525;28;20020;-82
2021/12/09 11:58:00;;;;;;;45.17;29.80;;;282.40;2278.40;;;;;;5092033;28;20027;-84
2021/12/09 12:07:16;;;;;;;48.58;31.17;;;307.30;2304.00;;;;;;5094019;28;20406;-85
2021/12/09 12:12:58;;;;;;;54.42;32.65;;;282.50;2278.40;;;;;;5093942;28;20069;-85
2021/12/09 12:26:44;;;;;;;34.28;22.33;;;307.80;2304.00;;;;;;5096422;28;20063;-79
2021/12/09 12:40:49;;;;;;;26.42;20.20;;;307.50;2304.00;;;;;;5096589;28;20043;-81
2021/12/09 12:43:34;;;;;;;33.15;25.08;;;307.60;2304.00;;;;;;5095017;28;20035;-80
2021/12/09 12:49:12;;;;;;;64.75;38.92;;;307.70;2304.00;;;;;;5096416;28;20046;-77
2021/12/09 12:51:54;;;;;;;45.17;29.83;;;307.80;2304.00;;;;;;5096273;28;20333;-82
2021/12/09 12:54:37;;;;;;;40.60;28.30;;;307.80;2304.00;;;;;;5095986;28;20096;-82